sensor_id;sensor_type;location;lat;lon;timestamp;pressure;altitude;pressure_sealevel;temperature;humidity
78117;BME280;69042;59.120;37.904;2023-07-22T00:01:03;98922.16;;;14.69;68.81
78117;BME280;69042;59.120;37.904;2023-07-22T00:03:29;98919.75;;;14.66;69.01
78117;BME280;69042;59.120;37.904;2023-07-22T00:06:09;98929.56;;;14.64;69.12
78117;BME280;69042;59.120;37.904;2023-07-22T00:08:37;98929.78;;;14.61;69.08
78117;BME280;69042;59.120;37.904;2023-07-22T00:11:04;98928.25;;;14.58;69.30
78117;BME280;69042;59.120;37.904;2023-07-22T00:13:31;98930.16;;;14.56;69.49
78117;BME280;69042;59.120;37.904;2023-07-22T00:15:58;98928.56;;;14.53;69.53
78117;BME280;69042;59.120;37.904;2023-07-22T00:18:30;98927.84;;;14.51;69.63
78117;BME280;69042;59.120;37.904;2023-07-22T00:20:57;98921.03;;;14.49;69.67
78117;BME280;69042;59.120;37.904;2023-07-22T00:23:23;98927.38;;;14.46;70.26
78117;BME280;69042;59.120;37.904;2023-07-22T00:25:50;98924.84;;;14.45;70.30
78117;BME280;69042;59.120;37.904;2023-07-22T00:28:16;98932.00;;;14.43;70.27
78117;BME280;69042;59.120;37.904;2023-07-22T00:30:44;98933.91;;;14.41;70.26
78117;BME280;69042;59.120;37.904;2023-07-22T00:33:10;98934.88;;;14.40;70.46
78117;BME280;69042;59.120;37.904;2023-07-22T00:35:36;98931.53;;;14.37;70.52
78117;BME280;69042;59.120;37.904;2023-07-22T00:38:03;98929.03;;;14.36;70.31
78117;BME280;69042;59.120;37.904;2023-07-22T00:40:29;98933.44;;;14.35;70.53
78117;BME280;69042;59.120;37.904;2023-07-22T00:42:58;98931.06;;;14.32;70.71
78117;BME280;69042;59.120;37.904;2023-07-22T00:45:27;98932.72;;;14.33;70.81
78117;BME280;69042;59.120;37.904;2023-07-22T00:47:53;98926.63;;;14.33;70.67
78117;BME280;69042;59.120;37.904;2023-07-22T00:50:20;98931.16;;;14.31;70.66
78117;BME280;69042;59.120;37.904;2023-07-22T00:52:47;98935.72;;;14.29;70.69
78117;BME280;69042;59.120;37.904;2023-07-22T00:55:13;98934.16;;;14.26;71.00
78117;BME280;69042;59.120;37.904;2023-07-22T00:57:40;98938.56;;;14.26;71.02
78117;BME280;69042;59.120;37.904;2023-07-22T01:00:06;98933.44;;;14.24;71.21
78117;BME280;69042;59.120;37.904;2023-07-22T01:02:33;98930.69;;;14.26;71.43
78117;BME280;69042;59.120;37.904;2023-07-22T01:05:00;98943.84;;;14.26;71.27
78117;BME280;69042;59.120;37.904;2023-07-22T01:07:27;98940.38;;;14.25;71.47
78117;BME280;69042;59.120;37.904;2023-07-22T01:09:57;98943.84;;;14.26;71.47
78117;BME280;69042;59.120;37.904;2023-07-22T01:12:26;98952.53;;;14.26;71.49
78117;BME280;69042;59.120;37.904;2023-07-22T01:14:52;98956.13;;;14.25;71.66
78117;BME280;69042;59.120;37.904;2023-07-22T01:17:19;98957.06;;;14.24;71.77
78117;BME280;69042;59.120;37.904;2023-07-22T01:19:46;98956.97;;;14.26;71.86
78117;BME280;69042;59.120;37.904;2023-07-22T01:22:13;98939.75;;;14.22;71.85
78117;BME280;69042;59.120;37.904;2023-07-22T01:24:39;98951.72;;;14.26;71.99
78117;BME280;69042;59.120;37.904;2023-07-22T01:27:06;98953.50;;;14.25;72.00
78117;BME280;69042;59.120;37.904;2023-07-22T01:29:36;98950.75;;;14.27;71.68
78117;BME280;69042;59.120;37.904;2023-07-22T01:32:02;98953.38;;;14.27;71.94
78117;BME280;69042;59.120;37.904;2023-07-22T01:34:29;98951.56;;;14.27;71.83
78117;BME280;69042;59.120;37.904;2023-07-22T01:36:57;98955.78;;;14.30;71.89
78117;BME280;69042;59.120;37.904;2023-07-22T01:39:23;98960.06;;;14.31;71.63
78117;BME280;69042;59.120;37.904;2023-07-22T01:41:49;98957.56;;;14.29;72.02
78117;BME280;69042;59.120;37.904;2023-07-22T01:44:15;98956.47;;;14.32;71.85
78117;BME280;69042;59.120;37.904;2023-07-22T01:46:42;98962.59;;;14.32;71.96
78117;BME280;69042;59.120;37.904;2023-07-22T01:49:10;98958.06;;;14.34;72.19
78117;BME280;69042;59.120;37.904;2023-07-22T01:51:39;98959.63;;;14.37;71.91
78117;BME280;69042;59.120;37.904;2023-07-22T01:54:08;98958.66;;;14.38;71.80
78117;BME280;69042;59.120;37.904;2023-07-22T01:56:36;98958.53;;;14.40;71.68
78117;BME280;69042;59.120;37.904;2023-07-22T01:59:02;98965.47;;;14.41;71.82
78117;BME280;69042;59.120;37.904;2023-07-22T02:01:29;98968.81;;;14.43;71.58
78117;BME280;69042;59.120;37.904;2023-07-22T02:03:55;98958.19;;;14.44;71.80
78117;BME280;69042;59.120;37.904;2023-07-22T02:06:22;98965.09;;;14.45;71.67
78117;BME280;69042;59.120;37.904;2023-07-22T02:08:48;98965.00;;;14.47;71.43
78117;BME280;69042;59.120;37.904;2023-07-22T02:11:14;98964.75;;;14.50;71.73
78117;BME280;69042;59.120;37.904;2023-07-22T02:13:40;98962.84;;;14.52;71.54
78117;BME280;69042;59.120;37.904;2023-07-22T02:16:06;98965.28;;;14.55;71.53
78117;BME280;69042;59.120;37.904;2023-07-22T02:18:33;98962.41;;;14.58;71.43
78117;BME280;69042;59.120;37.904;2023-07-22T02:20:59;98962.16;;;14.61;71.31
78117;BME280;69042;59.120;37.904;2023-07-22T02:23:25;98954.06;;;14.64;71.19
78117;BME280;69042;59.120;37.904;2023-07-22T02:25:52;98958.97;;;14.69;71.20
78117;BME280;69042;59.120;37.904;2023-07-22T02:28:19;98956.91;;;14.72;71.12
78117;BME280;69042;59.120;37.904;2023-07-22T02:30:48;98947.84;;;14.76;71.07
78117;BME280;69042;59.120;37.904;2023-07-22T02:33:16;98955.97;;;14.85;70.76
78117;BME280;69042;59.120;37.904;2023-07-22T02:35:42;98959.06;;;14.90;71.04
78117;BME280;69042;59.120;37.904;2023-07-22T02:38:08;98959.41;;;14.96;70.79
78117;BME280;69042;59.120;37.904;2023-07-22T02:40:35;98962.53;;;15.02;70.76
78117;BME280;69042;59.120;37.904;2023-07-22T02:43:01;98963.84;;;15.07;70.50
78117;BME280;69042;59.120;37.904;2023-07-22T02:45:27;98957.38;;;15.11;70.29
78117;BME280;69042;59.120;37.904;2023-07-22T02:47:54;98968.25;;;15.18;70.37
78117;BME280;69042;59.120;37.904;2023-07-22T02:50:20;98963.34;;;15.25;69.99
78117;BME280;69042;59.120;37.904;2023-07-22T02:52:46;98957.72;;;15.29;69.91
78117;BME280;69042;59.120;37.904;2023-07-22T02:55:14;98962.34;;;15.37;69.91
78117;BME280;69042;59.120;37.904;2023-07-22T02:57:41;98965.31;;;15.44;69.67
78117;BME280;69042;59.120;37.904;2023-07-22T03:00:08;98964.59;;;15.53;69.47
78117;BME280;69042;59.120;37.904;2023-07-22T03:02:35;98964.09;;;15.59;69.28
78117;BME280;69042;59.120;37.904;2023-07-22T03:05:03;98962.75;;;15.65;69.12
78117;BME280;69042;59.120;37.904;2023-07-22T03:07:32;98959.53;;;15.72;68.86
78117;BME280;69042;59.120;37.904;2023-07-22T03:09:58;98963.31;;;15.79;68.86
78117;BME280;69042;59.120;37.904;2023-07-22T03:12:25;98964.38;;;15.88;68.75
78117;BME280;69042;59.120;37.904;2023-07-22T03:14:51;98980.63;;;15.93;68.39
78117;BME280;69042;59.120;37.904;2023-07-22T03:17:18;98965.28;;;15.98;68.23
78117;BME280;69042;59.120;37.904;2023-07-22T03:19:44;98964.06;;;16.02;68.06
78117;BME280;69042;59.120;37.904;2023-07-22T03:22:13;98963.13;;;16.03;68.06
78117;BME280;69042;59.120;37.904;2023-07-22T03:24:40;98963.66;;;16.07;68.06
78117;BME280;69042;59.120;37.904;2023-07-22T03:27:06;98979.25;;;16.10;67.93
78117;BME280;69042;59.120;37.904;2023-07-22T03:29:33;98970.97;;;16.15;67.87
78117;BME280;69042;59.120;37.904;2023-07-22T03:31:59;98972.63;;;16.16;67.81
78117;BME280;69042;59.120;37.904;2023-07-22T03:34:30;98969.84;;;16.17;68.01
78117;BME280;69042;59.120;37.904;2023-07-22T03:36:56;98977.66;;;16.19;67.92
78117;BME280;69042;59.120;37.904;2023-07-22T03:39:23;98976.41;;;16.23;67.70
78117;BME280;69042;59.120;37.904;2023-07-22T03:41:49;98983.47;;;16.22;67.37
78117;BME280;69042;59.120;37.904;2023-07-22T03:44:15;98985.41;;;16.20;67.47
78117;BME280;69042;59.120;37.904;2023-07-22T03:46:41;98981.94;;;16.20;67.71
78117;BME280;69042;59.120;37.904;2023-07-22T03:49:07;98984.47;;;16.21;67.83
78117;BME280;69042;59.120;37.904;2023-07-22T03:51:33;98983.47;;;16.22;67.79
78117;BME280;69042;59.120;37.904;2023-07-22T03:54:00;99001.53;;;16.27;67.52
78117;BME280;69042;59.120;37.904;2023-07-22T03:56:26;98981.28;;;16.28;67.72
78117;BME280;69042;59.120;37.904;2023-07-22T03:58:53;98986.44;;;16.29;67.67
78117;BME280;69042;59.120;37.904;2023-07-22T04:01:19;98978.53;;;16.29;67.79
78117;BME280;69042;59.120;37.904;2023-07-22T04:03:50;98982.97;;;16.29;67.52
78117;BME280;69042;59.120;37.904;2023-07-22T04:06:16;99001.16;;;16.32;67.56
78117;BME280;69042;59.120;37.904;2023-07-22T04:08:42;98987.03;;;16.33;67.64
78117;BME280;69042;59.120;37.904;2023-07-22T04:11:09;98997.44;;;16.34;67.94
78117;BME280;69042;59.120;37.904;2023-07-22T04:13:35;98987.88;;;16.33;67.60
78117;BME280;69042;59.120;37.904;2023-07-22T04:16:02;98986.75;;;16.36;67.61
78117;BME280;69042;59.120;37.904;2023-07-22T04:18:28;98995.38;;;16.38;67.50
78117;BME280;69042;59.120;37.904;2023-07-22T04:21:00;98988.19;;;16.40;67.37
78117;BME280;69042;59.120;37.904;2023-07-22T04:23:26;98987.91;;;16.43;67.71
78117;BME280;69042;59.120;37.904;2023-07-22T04:25:53;98990.88;;;16.50;67.61
78117;BME280;69042;59.120;37.904;2023-07-22T04:28:19;98995.34;;;16.59;67.86
78117;BME280;69042;59.120;37.904;2023-07-22T04:30:58;99000.81;;;16.67;67.32
78117;BME280;69042;59.120;37.904;2023-07-22T04:33:25;98997.41;;;16.76;66.95
78117;BME280;69042;59.120;37.904;2023-07-22T04:35:59;98990.94;;;16.80;67.29
78117;BME280;69042;59.120;37.904;2023-07-22T04:38:25;99000.97;;;16.87;66.92
78117;BME280;69042;59.120;37.904;2023-07-22T04:40:51;99006.78;;;16.90;66.84
78117;BME280;69042;59.120;37.904;2023-07-22T04:43:18;98999.47;;;16.94;66.74
78117;BME280;69042;59.120;37.904;2023-07-22T04:45:45;99008.09;;;16.96;66.74
78117;BME280;69042;59.120;37.904;2023-07-22T04:48:15;99011.88;;;17.03;66.51
78117;BME280;69042;59.120;37.904;2023-07-22T04:50:42;99012.00;;;17.11;66.64
78117;BME280;69042;59.120;37.904;2023-07-22T04:53:11;99015.25;;;17.15;66.36
78117;BME280;69042;59.120;37.904;2023-07-22T04:55:41;99016.66;;;17.19;66.33
78117;BME280;69042;59.120;37.904;2023-07-22T04:58:07;99012.78;;;17.23;66.10
78117;BME280;69042;59.120;37.904;2023-07-22T05:00:34;99014.84;;;17.29;66.47
78117;BME280;69042;59.120;37.904;2023-07-22T05:03:00;99017.09;;;17.34;66.10
78117;BME280;69042;59.120;37.904;2023-07-22T05:05:26;99008.09;;;17.36;65.59
78117;BME280;69042;59.120;37.904;2023-07-22T05:07:53;99016.56;;;17.40;65.71
78117;BME280;69042;59.120;37.904;2023-07-22T05:10:19;99009.75;;;17.47;66.04
78117;BME280;69042;59.120;37.904;2023-07-22T05:12:45;99020.50;;;17.55;65.70
78117;BME280;69042;59.120;37.904;2023-07-22T05:15:12;99013.69;;;17.62;65.48
78117;BME280;69042;59.120;37.904;2023-07-22T05:17:39;99017.03;;;17.64;65.26
78117;BME280;69042;59.120;37.904;2023-07-22T05:20:05;99001.59;;;17.69;65.65
78117;BME280;69042;59.120;37.904;2023-07-22T05:22:39;99012.44;;;17.76;65.48
78117;BME280;69042;59.120;37.904;2023-07-22T05:25:06;99002.19;;;17.83;64.82
78117;BME280;69042;59.120;37.904;2023-07-22T05:27:32;99003.59;;;17.87;65.02
78117;BME280;69042;59.120;37.904;2023-07-22T05:29:59;99004.00;;;17.92;64.77
78117;BME280;69042;59.120;37.904;2023-07-22T05:32:28;99013.50;;;17.95;64.84
78117;BME280;69042;59.120;37.904;2023-07-22T05:34:55;99007.63;;;18.01;65.22
78117;BME280;69042;59.120;37.904;2023-07-22T05:37:23;99015.16;;;18.05;64.78
78117;BME280;69042;59.120;37.904;2023-07-22T05:39:49;99007.22;;;18.05;64.50
78117;BME280;69042;59.120;37.904;2023-07-22T05:42:16;99000.69;;;18.09;64.46
78117;BME280;69042;59.120;37.904;2023-07-22T05:44:43;99006.81;;;18.20;64.58
78117;BME280;69042;59.120;37.904;2023-07-22T05:47:09;99004.44;;;18.26;64.09
78117;BME280;69042;59.120;37.904;2023-07-22T05:49:35;99002.91;;;18.34;63.67
78117;BME280;69042;59.120;37.904;2023-07-22T05:52:01;99010.41;;;18.38;63.79
78117;BME280;69042;59.120;37.904;2023-07-22T05:54:28;99004.69;;;18.43;63.69
78117;BME280;69042;59.120;37.904;2023-07-22T05:56:54;99004.53;;;18.54;63.24
78117;BME280;69042;59.120;37.904;2023-07-22T05:59:20;99022.47;;;18.60;63.04
78117;BME280;69042;59.120;37.904;2023-07-22T06:01:46;99012.44;;;18.64;62.50
78117;BME280;69042;59.120;37.904;2023-07-22T06:04:12;99012.00;;;18.68;62.41
78117;BME280;69042;59.120;37.904;2023-07-22T06:06:39;99009.78;;;18.73;62.17
78117;BME280;69042;59.120;37.904;2023-07-22T06:09:05;98996.84;;;18.80;61.68
78117;BME280;69042;59.120;37.904;2023-07-22T06:11:31;99004.34;;;18.85;61.39
78117;BME280;69042;59.120;37.904;2023-07-22T06:13:57;98996.94;;;18.88;61.27
78117;BME280;69042;59.120;37.904;2023-07-22T06:16:23;99000.81;;;18.94;61.28
78117;BME280;69042;59.120;37.904;2023-07-22T06:18:49;99000.09;;;19.02;61.33
78117;BME280;69042;59.120;37.904;2023-07-22T06:21:15;99000.03;;;19.11;60.67
78117;BME280;69042;59.120;37.904;2023-07-22T06:23:42;98998.94;;;19.14;60.93
78117;BME280;69042;59.120;37.904;2023-07-22T06:26:08;98993.63;;;19.14;60.08
78117;BME280;69042;59.120;37.904;2023-07-22T06:28:34;98997.25;;;19.13;60.34
78117;BME280;69042;59.120;37.904;2023-07-22T06:31:00;98997.94;;;19.15;60.17
78117;BME280;69042;59.120;37.904;2023-07-22T06:33:26;98998.31;;;19.20;59.75
78117;BME280;69042;59.120;37.904;2023-07-22T06:35:52;98996.66;;;19.19;59.71
78117;BME280;69042;59.120;37.904;2023-07-22T06:38:19;98999.31;;;19.19;59.94
78117;BME280;69042;59.120;37.904;2023-07-22T06:40:45;98991.50;;;19.18;59.28
78117;BME280;69042;59.120;37.904;2023-07-22T06:43:11;98991.66;;;19.16;59.10
78117;BME280;69042;59.120;37.904;2023-07-22T06:45:37;98985.97;;;19.11;59.47
78117;BME280;69042;59.120;37.904;2023-07-22T06:48:03;99002.97;;;19.08;59.23
78117;BME280;69042;59.120;37.904;2023-07-22T06:50:29;98990.88;;;19.06;59.23
78117;BME280;69042;59.120;37.904;2023-07-22T06:52:56;98991.00;;;19.04;59.30
78117;BME280;69042;59.120;37.904;2023-07-22T06:55:22;99017.34;;;19.06;59.40
78117;BME280;69042;59.120;37.904;2023-07-22T06:57:48;98997.13;;;19.05;58.99
78117;BME280;69042;59.120;37.904;2023-07-22T07:00:15;99006.91;;;19.04;59.08
78117;BME280;69042;59.120;37.904;2023-07-22T07:02:41;99000.09;;;19.02;59.20
78117;BME280;69042;59.120;37.904;2023-07-22T07:05:08;99001.47;;;19.06;59.19
78117;BME280;69042;59.120;37.904;2023-07-22T07:07:34;99005.19;;;19.13;59.07
78117;BME280;69042;59.120;37.904;2023-07-22T07:10:00;99014.22;;;19.20;58.46
78117;BME280;69042;59.120;37.904;2023-07-22T07:12:26;99009.56;;;19.32;57.92
78117;BME280;69042;59.120;37.904;2023-07-22T07:14:53;99017.31;;;19.43;57.86
78117;BME280;69042;59.120;37.904;2023-07-22T07:17:19;99012.66;;;19.55;57.61
78117;BME280;69042;59.120;37.904;2023-07-22T07:19:45;99012.72;;;19.63;57.28
78117;BME280;69042;59.120;37.904;2023-07-22T07:22:11;99013.97;;;19.69;57.25
78117;BME280;69042;59.120;37.904;2023-07-22T07:24:37;99007.91;;;19.76;57.22
78117;BME280;69042;59.120;37.904;2023-07-22T07:27:04;99012.03;;;19.89;56.62
78117;BME280;69042;59.120;37.904;2023-07-22T07:29:30;99031.63;;;19.96;55.51
78117;BME280;69042;59.120;37.904;2023-07-22T07:31:56;99011.78;;;20.00;55.64
78117;BME280;69042;59.120;37.904;2023-07-22T07:34:23;99007.22;;;20.10;55.52
78117;BME280;69042;59.120;37.904;2023-07-22T07:36:49;99011.78;;;20.18;55.64
78117;BME280;69042;59.120;37.904;2023-07-22T07:39:15;99014.66;;;20.25;55.25
78117;BME280;69042;59.120;37.904;2023-07-22T07:41:41;99006.38;;;20.28;55.53
78117;BME280;69042;59.120;37.904;2023-07-22T07:44:07;99011.22;;;20.32;55.67
78117;BME280;69042;59.120;37.904;2023-07-22T07:46:33;99017.06;;;20.36;55.59
78117;BME280;69042;59.120;37.904;2023-07-22T07:49:00;99002.81;;;20.37;55.46
78117;BME280;69042;59.120;37.904;2023-07-22T07:51:28;99000.50;;;20.42;55.32
78117;BME280;69042;59.120;37.904;2023-07-22T07:53:56;99005.38;;;20.47;55.39
78117;BME280;69042;59.120;37.904;2023-07-22T07:56:22;98997.59;;;20.53;55.25
78117;BME280;69042;59.120;37.904;2023-07-22T07:58:51;99019.06;;;20.60;54.78
78117;BME280;69042;59.120;37.904;2023-07-22T08:01:18;99031.53;;;20.59;55.25
78117;BME280;69042;59.120;37.904;2023-07-22T08:03:45;99019.06;;;20.60;54.19
78117;BME280;69042;59.120;37.904;2023-07-22T08:06:12;99006.56;;;20.52;53.79
78117;BME280;69042;59.120;37.904;2023-07-22T08:08:39;99015.00;;;20.48;53.87
78117;BME280;69042;59.120;37.904;2023-07-22T08:11:13;99011.81;;;20.44;53.71
78117;BME280;69042;59.120;37.904;2023-07-22T08:13:41;99010.69;;;20.47;54.13
78117;BME280;69042;59.120;37.904;2023-07-22T08:16:09;99019.84;;;20.52;53.79
78117;BME280;69042;59.120;37.904;2023-07-22T08:18:36;99019.69;;;20.54;53.44
78117;BME280;69042;59.120;37.904;2023-07-22T08:21:03;99018.56;;;20.56;53.63
78117;BME280;69042;59.120;37.904;2023-07-22T08:23:30;99018.78;;;20.63;53.29
78117;BME280;69042;59.120;37.904;2023-07-22T08:25:56;99029.91;;;20.67;52.56
78117;BME280;69042;59.120;37.904;2023-07-22T08:28:23;99033.91;;;20.71;52.64
78117;BME280;69042;59.120;37.904;2023-07-22T08:30:49;99022.84;;;20.75;52.23
78117;BME280;69042;59.120;37.904;2023-07-22T08:33:15;99021.53;;;20.79;51.69
78117;BME280;69042;59.120;37.904;2023-07-22T08:35:44;99024.53;;;20.85;51.63
78117;BME280;69042;59.120;37.904;2023-07-22T08:38:11;99038.03;;;20.91;50.73
78117;BME280;69042;59.120;37.904;2023-07-22T08:40:39;99021.47;;;20.97;49.98
78117;BME280;69042;59.120;37.904;2023-07-22T08:43:10;99025.69;;;21.08;49.94
78117;BME280;69042;59.120;37.904;2023-07-22T08:45:38;99018.78;;;21.24;49.76
78117;BME280;69042;59.120;37.904;2023-07-22T08:48:07;99021.19;;;21.43;49.61
78117;BME280;69042;59.120;37.904;2023-07-22T08:53:01;99025.28;;;21.80;48.13
78117;BME280;69042;59.120;37.904;2023-07-22T08:55:27;99020.66;;;21.98;48.10
78117;BME280;69042;59.120;37.904;2023-07-22T08:57:55;99019.19;;;22.12;46.99
78117;BME280;69042;59.120;37.904;2023-07-22T09:00:22;99022.00;;;22.19;47.17
78117;BME280;69042;59.120;37.904;2023-07-22T09:02:48;99017.84;;;22.16;46.06
78117;BME280;69042;59.120;37.904;2023-07-22T09:05:15;99023.47;;;22.13;46.27
78117;BME280;69042;59.120;37.904;2023-07-22T09:07:41;99022.00;;;22.19;46.59
78117;BME280;69042;59.120;37.904;2023-07-22T09:10:09;99027.84;;;22.31;46.90
78117;BME280;69042;59.120;37.904;2023-07-22T09:12:35;99036.81;;;22.38;46.47
78117;BME280;69042;59.120;37.904;2023-07-22T09:15:09;99021.22;;;22.43;47.21
78117;BME280;69042;59.120;37.904;2023-07-22T09:17:38;99026.50;;;22.51;47.57
78117;BME280;69042;59.120;37.904;2023-07-22T09:20:05;99022.34;;;22.57;47.23
78117;BME280;69042;59.120;37.904;2023-07-22T09:22:33;99024.66;;;22.60;47.33
78117;BME280;69042;59.120;37.904;2023-07-22T09:25:19;99024.81;;;22.66;47.30
78117;BME280;69042;59.120;37.904;2023-07-22T09:27:51;99025.50;;;22.77;46.93
78117;BME280;69042;59.120;37.904;2023-07-22T09:30:34;99035.94;;;22.86;46.58
78117;BME280;69042;59.120;37.904;2023-07-22T09:33:04;99030.94;;;22.92;46.80
78117;BME280;69042;59.120;37.904;2023-07-22T09:35:44;99034.75;;;22.97;47.37
78117;BME280;69042;59.120;37.904;2023-07-22T09:38:11;99032.75;;;23.07;46.82
78117;BME280;69042;59.120;37.904;2023-07-22T09:40:40;99034.06;;;23.12;46.17
78117;BME280;69042;59.120;37.904;2023-07-22T09:43:09;99039.06;;;23.15;46.45
78117;BME280;69042;59.120;37.904;2023-07-22T09:45:35;99041.25;;;23.11;46.13
78117;BME280;69042;59.120;37.904;2023-07-22T09:48:03;99036.59;;;22.97;46.51
78117;BME280;69042;59.120;37.904;2023-07-22T09:50:29;99041.47;;;22.77;46.05
78117;BME280;69042;59.120;37.904;2023-07-22T09:52:57;99032.34;;;22.63;46.60
78117;BME280;69042;59.120;37.904;2023-07-22T09:55:31;99040.66;;;22.60;46.17
78117;BME280;69042;59.120;37.904;2023-07-22T09:58:00;99047.81;;;22.59;46.42
78117;BME280;69042;59.120;37.904;2023-07-22T10:00:31;99055.13;;;22.65;46.75
78117;BME280;69042;59.120;37.904;2023-07-22T10:02:59;99034.47;;;22.76;46.39
78117;BME280;69042;59.120;37.904;2023-07-22T10:05:26;99048.09;;;22.89;46.58
78117;BME280;69042;59.120;37.904;2023-07-22T10:07:55;99037.75;;;22.94;46.31
78117;BME280;69042;59.120;37.904;2023-07-22T10:10:30;99040.25;;;22.96;46.23
78117;BME280;69042;59.120;37.904;2023-07-22T10:12:56;99045.09;;;23.00;46.35
78117;BME280;69042;59.120;37.904;2023-07-22T10:15:25;99036.91;;;23.10;46.41
78117;BME280;69042;59.120;37.904;2023-07-22T10:17:53;99037.41;;;23.05;46.15
78117;BME280;69042;59.120;37.904;2023-07-22T10:20:21;99045.41;;;23.05;45.88
78117;BME280;69042;59.120;37.904;2023-07-22T10:22:49;99047.44;;;23.03;45.84
78117;BME280;69042;59.120;37.904;2023-07-22T10:25:20;99044.91;;;23.10;45.72
78117;BME280;69042;59.120;37.904;2023-07-22T10:27:48;99043.03;;;23.19;45.06
78117;BME280;69042;59.120;37.904;2023-07-22T10:30:16;99040.88;;;23.22;45.67
78117;BME280;69042;59.120;37.904;2023-07-22T10:32:46;99032.13;;;23.37;45.29
78117;BME280;69042;59.120;37.904;2023-07-22T10:38:06;99034.38;;;23.17;44.12
78117;BME280;69042;59.120;37.904;2023-07-22T10:40:48;99041.44;;;22.93;44.51
78117;BME280;69042;59.120;37.904;2023-07-22T10:43:16;99043.97;;;22.70;44.17
78117;BME280;69042;59.120;37.904;2023-07-22T10:45:51;99045.66;;;22.55;45.96
78117;BME280;69042;59.120;37.904;2023-07-22T10:48:18;99043.81;;;22.47;46.71
78117;BME280;69042;59.120;37.904;2023-07-22T10:50:47;99051.31;;;22.43;46.03
78117;BME280;69042;59.120;37.904;2023-07-22T10:53:20;99048.16;;;22.48;46.82
78117;BME280;69042;59.120;37.904;2023-07-22T11:14:34;99049.63;;;23.70;43.82
78117;BME280;69042;59.120;37.904;2023-07-22T11:17:02;99032.31;;;23.75;44.31
78117;BME280;69042;59.120;37.904;2023-07-22T11:19:34;99043.66;;;24.00;44.87
78117;BME280;69042;59.120;37.904;2023-07-22T11:22:00;99046.94;;;24.10;44.51
78117;BME280;69042;59.120;37.904;2023-07-22T11:24:27;99041.50;;;24.18;43.51
78117;BME280;69042;59.120;37.904;2023-07-22T11:26:54;99040.03;;;24.16;43.57
78117;BME280;69042;59.120;37.904;2023-07-22T11:29:20;99044.81;;;24.05;43.90
78117;BME280;69042;59.120;37.904;2023-07-22T11:31:48;99050.84;;;24.22;44.50
78117;BME280;69042;59.120;37.904;2023-07-22T11:34:15;99047.13;;;24.55;44.02
78117;BME280;69042;59.120;37.904;2023-07-22T11:36:42;99047.34;;;24.98;43.87
78117;BME280;69042;59.120;37.904;2023-07-22T11:39:15;99055.19;;;25.59;42.43
78117;BME280;69042;59.120;37.904;2023-07-22T11:41:42;99054.97;;;26.33;41.86
78117;BME280;69042;59.120;37.904;2023-07-22T11:44:10;99052.47;;;27.09;40.71
78117;BME280;69042;59.120;37.904;2023-07-22T11:47:01;99052.53;;;27.64;39.21
78117;BME280;69042;59.120;37.904;2023-07-22T11:49:46;99051.25;;;28.08;38.00
78117;BME280;69042;59.120;37.904;2023-07-22T11:52:17;99062.38;;;27.98;37.49
78117;BME280;69042;59.120;37.904;2023-07-22T11:54:45;99065.31;;;28.10;38.14
78117;BME280;69042;59.120;37.904;2023-07-22T11:57:16;99074.81;;;28.13;38.17
78117;BME280;69042;59.120;37.904;2023-07-22T11:59:47;99053.84;;;27.81;37.77
78117;BME280;69042;59.120;37.904;2023-07-22T12:04:43;99064.97;;;27.30;38.22
78117;BME280;69042;59.120;37.904;2023-07-22T12:07:24;99054.13;;;28.00;38.59
78117;BME280;69042;59.120;37.904;2023-07-22T12:09:56;99057.69;;;28.80;37.47
78117;BME280;69042;59.120;37.904;2023-07-22T12:12:43;99055.41;;;28.84;36.56
78117;BME280;69042;59.120;37.904;2023-07-22T12:18:15;99047.97;;;28.73;36.58
78117;BME280;69042;59.120;37.904;2023-07-22T12:20:42;99041.13;;;28.97;36.46
78117;BME280;69042;59.120;37.904;2023-07-22T12:23:08;99045.88;;;29.66;36.26
78117;BME280;69042;59.120;37.904;2023-07-22T12:25:35;99035.47;;;30.47;35.59
78117;BME280;69042;59.120;37.904;2023-07-22T12:28:01;99038.06;;;31.04;34.55
78117;BME280;69042;59.120;37.904;2023-07-22T12:30:27;99030.44;;;31.68;33.17
78117;BME280;69042;59.120;37.904;2023-07-22T12:32:53;99041.09;;;32.11;31.60
78117;BME280;69042;59.120;37.904;2023-07-22T12:35:19;99021.75;;;32.38;31.05
78117;BME280;69042;59.120;37.904;2023-07-22T12:37:46;99032.88;;;32.30;30.96
78117;BME280;69042;59.120;37.904;2023-07-22T12:40:12;99030.59;;;32.03;31.17
78117;BME280;69042;59.120;37.904;2023-07-22T12:42:38;99028.03;;;31.78;30.91
78117;BME280;69042;59.120;37.904;2023-07-22T12:45:05;99037.91;;;31.36;31.25
78117;BME280;69042;59.120;37.904;2023-07-22T12:47:31;99037.22;;;30.85;32.23
78117;BME280;69042;59.120;37.904;2023-07-22T12:49:58;99031.66;;;30.55;32.30
78117;BME280;69042;59.120;37.904;2023-07-22T12:52:24;99037.31;;;30.46;33.16
78117;BME280;69042;59.120;37.904;2023-07-22T12:54:50;99035.16;;;30.30;33.05
78117;BME280;69042;59.120;37.904;2023-07-22T12:57:16;99035.94;;;30.05;32.58
78117;BME280;69042;59.120;37.904;2023-07-22T12:59:42;99049.81;;;29.71;32.99
78117;BME280;69042;59.120;37.904;2023-07-22T13:02:08;99036.09;;;29.27;33.62
78117;BME280;69042;59.120;37.904;2023-07-22T13:04:35;99042.13;;;29.09;34.30
78117;BME280;69042;59.120;37.904;2023-07-22T13:07:01;99042.53;;;29.19;35.00
78117;BME280;69042;59.120;37.904;2023-07-22T13:09:27;99035.41;;;29.38;34.09
78117;BME280;69042;59.120;37.904;2023-07-22T13:11:54;99032.22;;;29.10;33.73
78117;BME280;69042;59.120;37.904;2023-07-22T13:14:20;99040.75;;;28.67;34.27
78117;BME280;69042;59.120;37.904;2023-07-22T13:16:46;99038.03;;;28.33;34.53
78117;BME280;69042;59.120;37.904;2023-07-22T13:19:13;99038.63;;;28.02;34.76
78117;BME280;69042;59.120;37.904;2023-07-22T13:21:39;99047.28;;;27.91;35.28